createdAt,value
2016-12-07T00:01:06.580Z,-0.77
2016-12-07T00:02:17.557Z,-0.82
2016-12-07T00:03:28.526Z,-0.87
2016-12-07T00:04:39.506Z,-0.8
2016-12-07T00:05:50.888Z,-0.76
2016-12-07T00:07:01.926Z,-0.76
2016-12-07T00:08:12.925Z,-0.67
2016-12-07T00:09:23.906Z,-0.67
2016-12-07T00:10:35.095Z,-0.67
2016-12-07T00:11:46.071Z,-0.66
2016-12-07T00:12:57.132Z,-0.7
2016-12-07T00:14:08.110Z,-0.66
2016-12-07T00:15:19.090Z,-0.67
2016-12-07T00:16:30.079Z,-0.72
2016-12-07T00:17:41.267Z,-0.79
2016-12-07T00:18:52.301Z,-0.67
2016-12-07T00:20:03.491Z,-0.66
2016-12-07T00:21:14.475Z,-0.64
2016-12-07T00:22:25.653Z,-0.7
2016-12-07T00:23:36.632Z,-0.77
2016-12-07T00:24:47.657Z,-0.93
2016-12-07T00:25:58.639Z,-0.82
2016-12-07T00:27:09.621Z,-0.85
2016-12-07T00:28:20.604Z,-0.95
2016-12-07T00:29:31.579Z,-1.01
2016-12-07T00:30:42.609Z,-1.1
2016-12-07T00:31:53.594Z,-1.17
2016-12-07T00:33:04.781Z,-1.21
2016-12-07T00:34:15.765Z,-1.17
2016-12-07T00:35:26.948Z,-1.17
2016-12-07T00:36:37.979Z,-1.14
2016-12-07T00:37:48.972Z,-1.01
2016-12-07T00:38:59.974Z,-1.07
2016-12-07T00:40:10.954Z,-0.96
2016-12-07T00:41:21.941Z,-1.01
2016-12-07T00:42:32.974Z,-0.99
2016-12-07T00:43:43.952Z,-0.92
2016-12-07T00:44:54.931Z,-1.04
2016-12-07T00:46:05.930Z,-0.98
2016-12-07T00:47:16.916Z,-0.96
2016-12-07T00:48:27.953Z,-0.93
2016-12-07T00:49:38.966Z,-0.93
2016-12-07T00:50:49.948Z,-0.99
2016-12-07T00:52:00.960Z,-0.95
2016-12-07T00:53:11.944Z,-0.96
2016-12-07T00:54:23.170Z,-0.98
2016-12-07T00:55:34.158Z,-0.98
2016-12-07T00:56:45.140Z,-1.01
2016-12-07T00:57:56.321Z,-0.95
2016-12-07T00:59:07.301Z,-1.04
2016-12-07T01:00:18.322Z,-1.06
2016-12-07T01:01:29.305Z,-1.1
2016-12-07T01:02:40.296Z,-1.11
2016-12-07T01:03:51.308Z,-1.11
2016-12-07T01:05:02.308Z,-1.17
2016-12-07T01:06:13.555Z,-1.17
2016-12-07T01:07:24.571Z,-1.16
2016-12-07T01:08:35.556Z,-1.11
2016-12-07T01:09:46.545Z,-1.11
2016-12-07T01:10:57.739Z,-1.13
2016-12-07T01:12:08.776Z,-1.22
2016-12-07T01:13:19.764Z,-1.21
2016-12-07T01:14:30.761Z,-1.17
2016-12-07T01:15:41.959Z,-1.19
2016-12-07T01:16:52.950Z,-1.16
2016-12-07T01:18:03.988Z,-1.14
2016-12-07T01:19:14.985Z,-1.14
2016-12-07T01:20:25.979Z,-1.09
2016-12-07T01:21:36.972Z,-1.17
2016-12-07T01:22:47.973Z,-1.13
2016-12-07T01:23:59.016Z,-1.14
2016-12-07T01:25:10.011Z,-1.13
2016-12-07T01:26:21.005Z,-1.07
2016-12-07T01:27:32.198Z,-1.03
2016-12-07T01:28:43.189Z,-1.07
2016-12-07T01:29:54.226Z,-1.13
2016-12-07T01:31:05.424Z,-1.11
2016-12-07T01:32:16.428Z,-1.17
2016-12-07T01:33:27.412Z,-1.14
2016-12-07T01:34:38.426Z,-1.24
2016-12-07T01:35:49.466Z,-1.31
2016-12-07T01:37:00.456Z,-1.25
2016-12-07T01:38:11.448Z,-1.22
2016-12-07T01:39:22.432Z,-1.3
2016-12-07T01:40:33.623Z,-1.32
2016-12-07T01:41:44.664Z,-1.37
2016-12-07T01:42:55.679Z,-1.28
2016-12-07T01:44:06.669Z,-1.31
2016-12-07T01:45:17.662Z,-1.3
2016-12-07T01:46:28.651Z,-1.16
2016-12-07T01:47:39.894Z,-1.3
2016-12-07T01:48:50.881Z,-1.16
2016-12-07T01:50:01.888Z,-1.09
2016-12-07T01:51:12.881Z,-1.09
2016-12-07T01:52:23.877Z,-1.06
2016-12-07T01:53:35.119Z,-0.98
2016-12-07T01:54:46.141Z,-0.98
2016-12-07T01:55:57.131Z,-1.03
2016-12-07T01:57:08.118Z,-0.96
2016-12-07T01:58:19.112Z,-0.95
2016-12-07T01:59:30.152Z,-0.93
2016-12-07T02:00:41.146Z,-0.96
2016-12-07T02:01:52.368Z,-0.87
2016-12-07T02:03:03.356Z,-0.87
2016-12-07T02:04:14.348Z,-0.87
2016-12-07T02:05:25.587Z,-0.8
2016-12-07T02:06:36.583Z,-0.87
2016-12-07T02:07:47.585Z,-0.91
2016-12-07T02:08:58.565Z,-0.91
2016-12-07T02:10:09.543Z,-0.84
2016-12-07T02:11:20.575Z,-0.82
2016-12-07T02:12:31.757Z,-0.79
2016-12-07T02:13:42.745Z,-0.74
2016-12-07T02:14:53.732Z,-0.76
2016-12-07T02:16:04.709Z,-0.76
2016-12-07T02:17:15.745Z,-0.76
2016-12-07T02:18:26.741Z,-0.73
2016-12-07T02:19:37.733Z,-0.8
2016-12-07T02:20:48.717Z,-0.85
2016-12-07T02:21:59.724Z,-0.8
2016-12-07T02:23:10.769Z,-0.87
2016-12-07T02:24:21.759Z,-0.96
2016-12-07T02:25:32.746Z,-0.89
2016-12-07T02:26:43.729Z,-0.92
2016-12-07T02:27:54.711Z,-1.01
2016-12-07T02:29:05.748Z,-0.85
2016-12-07T02:30:16.730Z,-0.91
2016-12-07T02:31:27.709Z,-0.93
2016-12-07T02:32:38.891Z,-0.77
2016-12-07T02:33:49.869Z,-0.89
2016-12-07T02:35:01.099Z,-0.84
2016-12-07T02:36:12.085Z,-0.77
2016-12-07T02:37:23.081Z,-0.92
2016-12-07T02:38:34.071Z,-0.91
2016-12-07T02:39:45.058Z,-0.92
2016-12-07T02:40:56.085Z,-0.91
2016-12-07T02:42:07.277Z,-0.84
2016-12-07T02:43:18.277Z,-0.95
2016-12-07T02:44:29.259Z,-0.93
2016-12-07T02:45:40.441Z,-0.98
2016-12-07T02:46:51.676Z,-1.01
2016-12-07T02:48:02.658Z,-0.95
2016-12-07T02:49:13.640Z,-0.93
2016-12-07T02:50:24.615Z,-0.98
2016-12-07T02:51:35.604Z,-0.96
2016-12-07T02:52:46.639Z,-0.99
2016-12-07T02:53:57.626Z,-0.96
2016-12-07T02:55:08.608Z,-0.93
2016-12-07T02:56:19.617Z,-0.96
2016-12-07T02:57:30.606Z,-0.98
2016-12-07T02:58:41.630Z,-0.87
2016-12-07T02:59:52.617Z,-0.89
2016-12-07T03:01:03.802Z,-0.91
2016-12-07T03:02:14.981Z,-0.93
2016-12-07T03:03:25.964Z,-0.96
2016-12-07T03:04:37.000Z,-0.96
2016-12-07T03:05:47.983Z,-0.92
2016-12-07T03:06:58.958Z,-0.79
2016-12-07T03:08:09.940Z,-0.87
2016-12-07T03:09:20.919Z,-0.91
2016-12-07T03:10:31.960Z,-0.87
2016-12-07T03:11:42.944Z,-0.98
2016-12-07T03:12:53.927Z,-0.87
2016-12-07T03:14:04.914Z,-0.95
2016-12-07T03:15:15.905Z,-0.8
2016-12-07T03:16:26.937Z,-0.85
2016-12-07T03:17:37.925Z,-0.87
2016-12-07T03:18:48.916Z,-0.8
2016-12-07T03:20:00.101Z,-0.82
2016-12-07T03:21:11.078Z,-0.74
2016-12-07T03:22:22.109Z,-0.85
2016-12-07T03:23:33.101Z,-0.87
2016-12-07T03:24:44.084Z,-0.85
2016-12-07T03:25:55.061Z,-0.96
2016-12-07T03:27:06.648Z,-0.93
2016-12-07T03:28:17.686Z,-0.93
2016-12-07T03:29:28.872Z,-0.93
2016-12-07T03:30:39.860Z,-0.96
2016-12-07T03:31:50.841Z,-0.84
2016-12-07T03:33:01.826Z,-0.98
2016-12-07T03:34:12.851Z,-0.95
2016-12-07T03:35:23.831Z,-0.91
2016-12-07T03:36:34.806Z,-0.91
2016-12-07T03:37:45.985Z,-0.89
2016-12-07T03:38:57.179Z,-0.85
2016-12-07T03:40:08.207Z,-0.8
2016-12-07T03:41:19.192Z,-0.93
2016-12-07T03:42:30.163Z,-0.85
2016-12-07T03:43:41.352Z,-0.87
2016-12-07T03:44:52.339Z,-0.98
2016-12-07T03:46:03.400Z,-1.06
2016-12-07T03:47:14.390Z,-1.17
2016-12-07T03:48:25.572Z,-1.11
2016-12-07T03:49:36.559Z,-1.25
2016-12-07T03:50:47.556Z,-1.14
2016-12-07T03:51:58.595Z,-1.27
2016-12-07T03:53:09.583Z,-1.31
2016-12-07T03:54:20.566Z,-1.25
2016-12-07T03:55:31.554Z,-1.28
2016-12-07T03:56:42.735Z,-1.24
2016-12-07T03:57:53.760Z,-1.19
2016-12-07T03:59:04.745Z,-1.28
2016-12-07T04:00:15.724Z,-1.25
2016-12-07T04:01:26.747Z,-1.31
2016-12-07T04:02:37.733Z,-1.3
2016-12-07T04:03:48.767Z,-1.27
2016-12-07T04:04:59.750Z,-1.21
2016-12-07T04:06:10.735Z,-1.09
2016-12-07T04:07:21.735Z,-1.14
2016-12-07T04:08:32.716Z,-1.14
2016-12-07T04:09:43.753Z,-1.11
2016-12-07T04:10:54.745Z,-1.01
2016-12-07T04:12:05.729Z,-0.92
2016-12-07T04:13:16.913Z,-1.06
2016-12-07T04:14:27.893Z,-1.07
2016-12-07T04:15:38.917Z,-1.16
2016-12-07T04:16:49.902Z,-1.17
2016-12-07T04:18:01.095Z,-1.16
2016-12-07T04:19:12.083Z,-1.27
2016-12-07T04:20:23.066Z,-1.17
2016-12-07T04:21:34.101Z,-1.22
2016-12-07T04:22:45.082Z,-1.22
2016-12-07T04:23:56.271Z,-1.24
2016-12-07T04:25:07.270Z,-1.21
2016-12-07T04:26:18.252Z,-1.14
2016-12-07T04:27:29.290Z,-1.14
2016-12-07T04:28:40.274Z,-1.21
2016-12-07T04:29:51.246Z,-1.09
2016-12-07T04:31:02.232Z,-1.07
2016-12-07T04:32:13.216Z,-1.11
2016-12-07T04:33:24.454Z,-1.03
2016-12-07T04:34:35.429Z,-1.04
2016-12-07T04:35:46.420Z,-0.98
2016-12-07T04:36:57.425Z,-0.98
2016-12-07T04:38:08.420Z,-1.01
2016-12-07T04:39:19.644Z,-1.04
2016-12-07T04:40:30.643Z,-0.96
2016-12-07T04:41:41.630Z,-0.92
2016-12-07T04:42:52.613Z,-0.89
2016-12-07T04:44:03.597Z,-0.93
2016-12-07T04:45:14.618Z,-0.93
2016-12-07T04:46:25.602Z,-0.93
2016-12-07T04:47:36.585Z,-0.99
2016-12-07T04:48:47.590Z,-0.95
2016-12-07T04:49:58.561Z,-0.93
2016-12-07T04:51:09.599Z,-0.92
2016-12-07T04:52:20.583Z,-1.03
2016-12-07T04:53:31.571Z,-0.91
2016-12-07T04:54:42.953Z,-1.07
2016-12-07T04:55:53.927Z,-1.01
2016-12-07T04:57:04.961Z,-0.95
2016-12-07T04:58:16.139Z,-0.96
2016-12-07T04:59:27.119Z,-0.98
2016-12-07T05:00:38.099Z,-0.95
2016-12-07T05:01:49.089Z,-0.93
2016-12-07T05:03:00.125Z,-0.95
2016-12-07T05:04:11.315Z,-0.93
2016-12-07T05:05:22.293Z,-0.87
2016-12-07T05:06:33.270Z,-0.98
2016-12-07T05:07:44.247Z,-0.93
2016-12-07T05:08:55.505Z,-0.98
2016-12-07T05:10:06.488Z,-0.96
2016-12-07T05:11:17.469Z,-0.98
2016-12-07T05:12:28.454Z,-0.95
2016-12-07T05:13:39.441Z,-0.93
2016-12-07T05:14:50.475Z,-0.99
2016-12-07T05:16:01.448Z,-0.93
2016-12-07T05:17:12.431Z,-0.99
2016-12-07T05:18:23.421Z,-1.03
2016-12-07T05:19:34.434Z,-1.03
2016-12-07T05:20:45.671Z,-1.03
2016-12-07T05:21:56.653Z,-0.89
2016-12-07T05:23:07.643Z,-0.99
2016-12-07T05:24:18.629Z,-0.98
2016-12-07T05:25:29.606Z,-1.01
2016-12-07T05:26:40.644Z,-0.87
2016-12-07T05:27:51.630Z,-0.91
2016-12-07T05:29:02.615Z,-0.98
2016-12-07T05:30:13.797Z,-0.92
2016-12-07T05:31:24.778Z,-0.91
2016-12-07T05:32:35.812Z,-0.92
2016-12-07T05:33:46.801Z,-0.96
2016-12-07T05:34:57.784Z,-0.95
2016-12-07T05:36:08.764Z,-0.95
2016-12-07T05:37:19.741Z,-1.1
2016-12-07T05:38:30.773Z,-1.17
2016-12-07T05:39:41.761Z,-1.24
2016-12-07T05:40:52.736Z,-1.22
2016-12-07T05:42:03.716Z,-1.19
2016-12-07T05:43:14.701Z,-1.34
2016-12-07T05:44:25.739Z,-1.35
2016-12-07T05:45:36.717Z,-1.3
2016-12-07T05:46:47.695Z,-1.27
2016-12-07T05:47:58.885Z,-1.34
2016-12-07T05:49:09.874Z,-1.3
2016-12-07T05:50:20.911Z,-1.3
2016-12-07T05:51:31.891Z,-1.27
2016-12-07T05:52:43.086Z,-1.28
2016-12-07T05:53:54.278Z,-1.22
2016-12-07T05:55:05.261Z,-1.28
2016-12-07T05:56:16.299Z,-1.28
2016-12-07T05:57:27.486Z,-1.22
2016-12-07T05:58:38.462Z,-1.27
2016-12-07T05:59:49.446Z,-1.25
2016-12-07T06:01:00.431Z,-1.28
2016-12-07T06:02:11.463Z,-1.35
2016-12-07T06:03:22.443Z,-1.34
2016-12-07T06:04:33.423Z,-1.28
2016-12-07T06:05:44.603Z,-1.27
2016-12-07T06:06:55.586Z,-1.31
2016-12-07T06:08:06.645Z,-1.32
2016-12-07T06:09:17.834Z,-1.32
2016-12-07T06:10:28.821Z,-1.28
2016-12-07T06:11:39.829Z,-1.3
2016-12-07T06:12:50.810Z,-1.25
2016-12-07T06:14:02.044Z,-1.27
2016-12-07T06:15:13.025Z,-1.22
2016-12-07T06:16:24.011Z,-1.25
2016-12-07T06:17:35.398Z,-1.28
2016-12-07T06:18:46.385Z,-1.19
2016-12-07T06:19:57.411Z,-1.13
2016-12-07T06:21:08.392Z,-1.17
2016-12-07T06:22:19.362Z,-1.14
2016-12-07T06:23:30.345Z,-1.1
2016-12-07T06:24:41.328Z,-1.16
2016-12-07T06:25:52.558Z,-1.1
2016-12-07T06:27:03.741Z,-1.19
2016-12-07T06:28:14.718Z,-1.14
2016-12-07T06:29:25.710Z,-1.14
2016-12-07T06:30:36.698Z,-1.14
2016-12-07T06:31:47.925Z,-1.14
2016-12-07T06:32:58.904Z,-1.11
2016-12-07T06:34:09.881Z,-1.16
2016-12-07T06:35:20.866Z,-1.14
2016-12-07T06:36:31.870Z,-1.13
2016-12-07T06:37:42.905Z,-1.07
2016-12-07T06:38:53.886Z,-1.06
2016-12-07T06:40:05.067Z,-0.98
2016-12-07T06:41:16.075Z,-0.96
2016-12-07T06:42:27.057Z,-0.99
2016-12-07T06:43:38.095Z,-0.92
2016-12-07T06:44:49.078Z,-0.98
2016-12-07T06:46:00.068Z,-0.92
2016-12-07T06:47:11.052Z,-0.87
2016-12-07T06:48:22.039Z,-0.89
2016-12-07T06:49:33.072Z,-0.89
2016-12-07T06:50:44.060Z,-0.93
2016-12-07T06:51:55.239Z,-0.84
2016-12-07T06:53:06.225Z,-0.87
2016-12-07T06:54:17.207Z,-0.79
2016-12-07T06:55:28.444Z,-0.8
2016-12-07T06:56:39.428Z,-0.77
2016-12-07T06:57:50.407Z,-0.73
2016-12-07T06:59:01.393Z,-0.77
2016-12-07T07:00:12.378Z,-0.73
2016-12-07T07:01:23.358Z,-0.7
2016-12-07T07:02:34.343Z,-0.66
2016-12-07T07:03:45.323Z,-0.67
2016-12-07T07:04:56.510Z,-0.69
2016-12-07T07:06:07.499Z,-0.67
2016-12-07T07:07:18.484Z,-0.64
2016-12-07T07:08:29.464Z,-0.66
2016-12-07T07:09:40.512Z,-0.56
2016-12-07T07:10:51.494Z,-0.58
2016-12-07T07:12:02.706Z,-0.62
2016-12-07T07:13:13.878Z,-0.61
2016-12-07T07:14:24.870Z,-0.58
2016-12-07T07:15:35.854Z,-0.7
2016-12-07T07:16:46.843Z,-0.7
2016-12-07T07:17:57.826Z,-0.82
2016-12-07T07:19:08.812Z,-0.79
2016-12-07T07:20:19.810Z,-0.77
2016-12-07T07:21:30.791Z,-0.72
2016-12-07T07:22:41.785Z,-0.73
2016-12-07T07:23:52.771Z,-0.77
2016-12-07T07:25:03.791Z,-0.79
2016-12-07T07:26:14.770Z,-0.82
2016-12-07T07:27:25.754Z,-0.76
2016-12-07T07:28:36.726Z,-0.7
2016-12-07T07:29:47.713Z,-0.74
2016-12-07T07:30:58.702Z,-0.66
2016-12-07T07:32:09.678Z,-0.64
2016-12-07T07:33:20.663Z,-0.58
2016-12-07T07:34:31.636Z,-0.58
2016-12-07T07:35:42.630Z,-0.58
2016-12-07T07:36:53.616Z,-0.55
2016-12-07T07:38:04.596Z,-0.52
2016-12-07T07:39:15.589Z,-0.61
2016-12-07T07:40:26.576Z,-0.51
2016-12-07T07:41:37.561Z,-0.64
2016-12-07T07:42:48.551Z,-0.58
2016-12-07T07:43:59.535Z,-0.59
2016-12-07T07:45:10.572Z,-0.55
2016-12-07T07:46:21.556Z,-0.55
2016-12-07T07:47:32.553Z,-0.49
2016-12-07T07:48:43.733Z,-0.45
2016-12-07T07:49:54.723Z,-0.45
2016-12-07T07:51:05.751Z,-0.51
2016-12-07T07:52:16.935Z,-0.43
2016-12-07T07:53:27.911Z,-0.31
2016-12-07T07:54:38.900Z,-0.38
2016-12-07T07:55:49.907Z,-0.45
2016-12-07T07:57:00.936Z,-0.25
2016-12-07T07:58:11.947Z,-0.31
2016-12-07T07:59:22.940Z,-0.25
2016-12-07T08:00:33.926Z,-0.25
2016-12-07T08:01:44.907Z,-0.18
2016-12-07T08:02:55.933Z,-0.16
2016-12-07T08:04:06.919Z,-0.16
2016-12-07T08:05:17.903Z,-0.07
2016-12-07T08:06:28.880Z,-0.16
2016-12-07T08:07:39.871Z,-0.09
2016-12-07T08:08:50.942Z,-0.09
2016-12-07T08:10:01.929Z,-0.1
2016-12-07T08:11:12.900Z,0.06
2016-12-07T08:12:23.890Z,0.01
2016-12-07T08:13:35.077Z,-0.02
2016-12-07T08:14:46.148Z,0.06
2016-12-07T08:15:57.525Z,0.09
2016-12-07T08:17:08.512Z,0.17
2016-12-07T08:18:19.495Z,0.24
2016-12-07T08:19:30.475Z,0.27
2016-12-07T08:20:41.501Z,0.24
2016-12-07T08:21:52.690Z,0.35
2016-12-07T08:23:03.678Z,0.37
2016-12-07T08:24:14.667Z,0.42
2016-12-07T08:25:25.663Z,0.44
2016-12-07T08:26:36.688Z,0.37
2016-12-07T08:27:47.681Z,0.41
2016-12-07T08:28:58.661Z,0.45
2016-12-07T08:30:09.847Z,0.37
2016-12-07T08:31:20.833Z,0.31
2016-12-07T08:32:31.873Z,0.42
2016-12-07T08:33:42.855Z,0.44
2016-12-07T08:34:53.835Z,0.47
2016-12-07T08:36:04.821Z,0.47
2016-12-07T08:37:15.828Z,0.63
2016-12-07T08:38:26.859Z,0.6
2016-12-07T08:39:37.851Z,0.61
2016-12-07T08:40:49.035Z,0.63
2016-12-07T08:42:00.020Z,0.63
2016-12-07T08:43:11.005Z,0.69
2016-12-07T08:44:22.040Z,0.78
2016-12-07T08:45:33.029Z,0.81
2016-12-07T08:46:44.414Z,0.85
2016-12-07T08:47:55.397Z,0.82
2016-12-07T08:49:06.378Z,0.86
2016-12-07T08:50:17.404Z,0.96
2016-12-07T08:51:28.380Z,0.96
2016-12-07T08:52:39.359Z,0.96
2016-12-07T08:53:50.334Z,1.07
2016-12-07T08:55:01.316Z,1.08
2016-12-07T08:56:12.350Z,1.08
2016-12-07T08:57:23.324Z,1.07
2016-12-07T08:58:34.503Z,1.17
2016-12-07T08:59:45.508Z,1.18
2016-12-07T09:00:56.488Z,1.17
2016-12-07T09:02:07.728Z,1.17
2016-12-07T09:03:18.908Z,1.21
2016-12-07T09:04:29.889Z,1.21
2016-12-07T09:05:41.070Z,1.17
2016-12-07T09:06:52.057Z,1.28
2016-12-07T09:08:03.093Z,1.28
2016-12-07T09:09:14.109Z,1.2
2016-12-07T09:10:25.092Z,1.3
2016-12-07T09:11:36.103Z,1.32
2016-12-07T09:12:47.085Z,1.33
2016-12-07T09:13:58.112Z,1.33
2016-12-07T09:15:09.098Z,1.32
2016-12-07T09:16:20.077Z,1.36
2016-12-07T09:17:31.265Z,1.33
2016-12-07T09:18:42.251Z,1.35
2016-12-07T09:19:53.485Z,1.38
2016-12-07T09:21:04.476Z,1.29
2016-12-07T09:22:15.455Z,1.35
2016-12-07T09:23:26.446Z,1.36
2016-12-07T09:24:37.432Z,1.42
2016-12-07T09:25:48.469Z,1.39
2016-12-07T09:26:59.460Z,1.46
2016-12-07T09:28:10.452Z,1.42
2016-12-07T09:29:21.436Z,1.51
2016-12-07T09:30:32.422Z,1.51
2016-12-07T09:31:43.459Z,1.51
2016-12-07T09:32:54.649Z,1.51
2016-12-07T09:34:05.625Z,1.54
2016-12-07T09:35:16.811Z,1.54
2016-12-07T09:36:27.795Z,1.65
2016-12-07T09:37:38.826Z,1.64
2016-12-07T09:38:49.818Z,1.64
2016-12-07T09:40:00.805Z,1.54
2016-12-07T09:41:11.988Z,1.57
2016-12-07T09:42:22.980Z,1.68
2016-12-07T09:43:34.426Z,1.69
2016-12-07T09:44:45.412Z,1.78
2016-12-07T09:45:56.400Z,1.84
2016-12-07T09:47:07.394Z,1.84
2016-12-07T09:48:18.577Z,1.9
2016-12-07T09:49:29.603Z,1.74
2016-12-07T09:50:40.582Z,1.83
2016-12-07T09:51:51.559Z,1.83
2016-12-07T09:53:02.547Z,1.83
2016-12-07T09:54:13.546Z,1.97
2016-12-07T09:55:24.576Z,1.93
2016-12-07T09:56:35.555Z,2.01
2016-12-07T09:57:46.742Z,2.08
2016-12-07T09:58:57.724Z,2.01
2016-12-07T10:00:08.905Z,2.02
2016-12-07T10:01:19.936Z,2.09
2016-12-07T10:02:31.122Z,2.06
2016-12-07T10:03:42.103Z,2.09
2016-12-07T10:04:53.088Z,2.13
2016-12-07T10:06:04.280Z,2.05
2016-12-07T10:07:15.306Z,2.11
2016-12-07T10:08:26.289Z,2.22
2016-12-07T10:09:37.278Z,2.23
2016-12-07T10:10:48.264Z,2.22
2016-12-07T10:11:59.441Z,2.31
2016-12-07T10:13:10.481Z,2.31
2016-12-07T10:14:21.472Z,2.29
2016-12-07T10:15:32.462Z,2.33
2016-12-07T10:16:43.653Z,2.36
2016-12-07T10:17:54.662Z,2.44
2016-12-07T10:19:05.700Z,2.4
2016-12-07T10:20:16.693Z,2.48
2016-12-07T10:21:27.675Z,2.42
2016-12-07T10:22:38.862Z,2.42
2016-12-07T10:23:49.843Z,2.44
2016-12-07T10:25:01.099Z,2.52
2016-12-07T10:26:12.086Z,2.55
2016-12-07T10:27:23.096Z,2.55
2016-12-07T10:28:34.081Z,2.65
2016-12-07T10:29:45.267Z,2.66
2016-12-07T10:30:56.299Z,2.65
2016-12-07T10:32:07.695Z,2.65
2016-12-07T10:33:18.677Z,2.66
2016-12-07T10:34:29.670Z,2.65
2016-12-07T10:35:40.855Z,2.77
2016-12-07T10:36:51.883Z,2.73
2016-12-07T10:38:03.075Z,2.78
2016-12-07T10:39:14.055Z,2.87
2016-12-07T10:40:25.040Z,2.8
2016-12-07T10:41:36.232Z,2.87
2016-12-07T10:42:47.269Z,2.9
2016-12-07T10:43:58.278Z,2.84
2016-12-07T10:45:09.264Z,2.91
2016-12-07T10:46:20.250Z,2.96
2016-12-07T10:47:31.228Z,3.01
2016-12-07T10:48:42.258Z,2.98
2016-12-07T10:49:53.267Z,3.02
2016-12-07T10:51:04.251Z,2.96
2016-12-07T10:52:15.439Z,2.99
2016-12-07T10:53:26.624Z,2.98
2016-12-07T10:54:37.662Z,3.11
2016-12-07T10:55:48.647Z,3.2
2016-12-07T10:56:59.867Z,3.16
2016-12-07T10:58:11.065Z,3.27
2016-12-07T10:59:22.049Z,3.3
2016-12-07T11:00:33.086Z,3.4
2016-12-07T11:01:44.072Z,3.46
2016-12-07T11:02:55.055Z,3.39
2016-12-07T11:04:06.046Z,3.54
2016-12-07T11:05:17.037Z,3.49
2016-12-07T11:06:28.079Z,3.54
2016-12-07T11:07:39.058Z,3.61
2016-12-07T11:08:50.051Z,3.58
2016-12-07T11:10:01.236Z,3.61
2016-12-07T11:11:12.222Z,3.71
2016-12-07T11:12:23.464Z,3.72
2016-12-07T11:13:34.459Z,3.69
2016-12-07T11:14:45.454Z,3.82
2016-12-07T11:15:56.437Z,3.76
2016-12-07T11:17:07.431Z,3.93
2016-12-07T11:18:18.471Z,3.85
2016-12-07T11:19:29.657Z,3.99
2016-12-07T11:20:40.836Z,3.97
2016-12-07T11:21:51.825Z,4.02
2016-12-07T11:23:02.809Z,4.15
2016-12-07T11:24:13.853Z,4.14
2016-12-07T11:25:24.828Z,4.15
2016-12-07T11:26:35.832Z,4.2
2016-12-07T11:27:46.821Z,4.33
2016-12-07T11:28:58.019Z,4.33
2016-12-07T11:30:09.053Z,4.4
2016-12-07T11:31:20.260Z,4.42
2016-12-07T11:32:31.247Z,4.4
2016-12-07T11:33:42.234Z,4.44
2016-12-07T11:34:53.224Z,4.46
2016-12-07T11:36:04.256Z,4.56
2016-12-07T11:37:15.241Z,4.54
2016-12-07T11:38:26.229Z,4.66
2016-12-07T11:39:37.419Z,4.64
2016-12-07T11:40:48.604Z,4.68
2016-12-07T11:41:59.645Z,4.69
2016-12-07T11:43:10.632Z,4.75
2016-12-07T11:44:21.813Z,4.85
2016-12-07T11:45:33.022Z,4.97
2016-12-07T11:46:44.004Z,4.88
2016-12-07T11:47:55.044Z,4.92
2016-12-07T11:49:06.027Z,4.98
2016-12-07T11:50:17.012Z,5.1
2016-12-07T11:51:28.000Z,5.16
2016-12-07T11:52:38.989Z,5.34
2016-12-07T11:53:50.035Z,5.39
2016-12-07T11:55:01.217Z,5.41
2016-12-07T11:56:12.212Z,5.51
2016-12-07T11:57:23.193Z,5.55
2016-12-07T11:58:34.382Z,5.67
2016-12-07T11:59:45.632Z,5.73
2016-12-07T12:00:56.621Z,5.73
2016-12-07T12:02:07.629Z,5.84
2016-12-07T12:03:18.615Z,5.84
2016-12-07T12:04:29.613Z,5.91
2016-12-07T12:05:40.643Z,5.92
2016-12-07T12:06:51.636Z,5.96
2016-12-07T12:08:02.620Z,5.99
2016-12-07T12:09:13.806Z,6.05
2016-12-07T12:10:24.797Z,6.05
2016-12-07T12:11:35.839Z,6.17
2016-12-07T12:12:46.823Z,6.18
2016-12-07T12:13:57.815Z,6.24
2016-12-07T12:15:09.005Z,6.13
2016-12-07T12:16:19.999Z,6.17
2016-12-07T12:17:31.034Z,6.31
2016-12-07T12:18:42.018Z,6.36
2016-12-07T12:19:53.002Z,6.4
2016-12-07T12:21:03.986Z,6.36
2016-12-07T12:22:14.968Z,6.52
2016-12-07T12:23:26.003Z,6.43
2016-12-07T12:24:36.995Z,6.52
2016-12-07T12:25:47.982Z,6.51
2016-12-07T12:26:59.183Z,6.57
2016-12-07T12:28:10.168Z,6.67
2016-12-07T12:29:21.201Z,6.65
2016-12-07T12:30:32.188Z,6.64
2016-12-07T12:31:43.381Z,6.79
2016-12-07T12:32:54.370Z,6.79
2016-12-07T12:34:05.355Z,6.82
2016-12-07T12:35:16.588Z,6.75
2016-12-07T12:36:27.585Z,6.83
2016-12-07T12:37:38.571Z,6.8
2016-12-07T12:38:49.947Z,6.85
2016-12-07T12:40:01.140Z,6.85
2016-12-07T12:41:12.377Z,6.8
2016-12-07T12:42:23.362Z,6.79
2016-12-07T12:43:34.549Z,6.85
2016-12-07T12:44:45.530Z,6.86
2016-12-07T12:45:56.521Z,6.88
2016-12-07T12:47:07.761Z,6.95
2016-12-07T12:48:18.750Z,6.94
2016-12-07T12:49:29.734Z,6.97
2016-12-07T12:50:40.920Z,7.03
2016-12-07T12:51:51.914Z,7.13
2016-12-07T12:53:02.952Z,7.15
2016-12-07T12:54:13.938Z,7.22
2016-12-07T12:55:24.938Z,7.12
2016-12-07T12:56:35.927Z,7.23
2016-12-07T12:57:47.118Z,7.22
2016-12-07T12:58:58.156Z,7.26
2016-12-07T13:00:09.145Z,7.19
2016-12-07T13:01:20.146Z,7.15
2016-12-07T13:02:31.142Z,7.15
2016-12-07T13:03:42.126Z,7.21
2016-12-07T13:04:53.156Z,7.19
2016-12-07T13:06:04.143Z,7.22
2016-12-07T13:07:15.333Z,7.22
2016-12-07T13:08:26.322Z,7.19
2016-12-07T13:09:37.516Z,7.16
2016-12-07T13:10:48.554Z,7.18
2016-12-07T13:11:59.743Z,7.19
2016-12-07T13:13:11.126Z,7.16
2016-12-07T13:14:22.162Z,7.21
2016-12-07T13:15:33.146Z,7.22
2016-12-07T13:16:44.186Z,7.16
2016-12-07T13:17:55.175Z,7.19
2016-12-07T13:19:06.159Z,7.21
2016-12-07T13:20:17.151Z,7.21
2016-12-07T13:21:28.127Z,7.22
2016-12-07T13:22:39.364Z,7.22
2016-12-07T13:23:50.349Z,7.15
2016-12-07T13:25:01.329Z,7.19
2016-12-07T13:26:12.522Z,7.18
2016-12-07T13:27:23.502Z,7.18
2016-12-07T13:28:34.534Z,7.22
2016-12-07T13:29:45.520Z,7.26
2016-12-07T13:30:56.513Z,7.26
2016-12-07T13:32:07.501Z,7.26
2016-12-07T13:33:18.688Z,7.18
2016-12-07T13:34:29.723Z,7.21
2016-12-07T13:35:40.713Z,7.23
2016-12-07T13:36:51.696Z,7.19
2016-12-07T13:38:02.888Z,7.16
2016-12-07T13:39:13.874Z,7.21
2016-12-07T13:40:24.907Z,7.13
2016-12-07T13:41:35.896Z,7.19
2016-12-07T13:42:46.873Z,7.11
2016-12-07T13:43:57.863Z,7.18
2016-12-07T13:45:08.846Z,7.18
2016-12-07T13:46:19.877Z,7.12
2016-12-07T13:47:30.858Z,7.13
2016-12-07T13:48:41.847Z,7.19
2016-12-07T13:49:52.836Z,7.13
2016-12-07T13:51:04.045Z,7.21
2016-12-07T13:52:15.690Z,7.22
2016-12-07T13:53:26.691Z,7.18
2016-12-07T13:54:37.688Z,7.22
2016-12-07T13:55:48.672Z,7.21
2016-12-07T13:56:59.667Z,7.18
2016-12-07T13:58:10.707Z,7.13
2016-12-07T13:59:21.692Z,7.13
2016-12-07T14:00:32.875Z,7.18
2016-12-07T14:01:43.857Z,7.15
2016-12-07T14:02:55.043Z,7.19
2016-12-07T14:04:06.084Z,7.15
2016-12-07T14:05:17.097Z,7.19
2016-12-07T14:06:28.082Z,7.16
2016-12-07T14:07:39.069Z,7.16
2016-12-07T14:08:50.257Z,7.12
2016-12-07T14:10:01.297Z,7.19
2016-12-07T14:11:12.478Z,7.29
2016-12-07T14:12:23.457Z,7.13
2016-12-07T14:13:34.438Z,7.19
2016-12-07T14:14:45.427Z,7.22
2016-12-07T14:15:56.665Z,7.21
2016-12-07T14:17:07.657Z,7.21
2016-12-07T14:18:18.650Z,7.27
2016-12-07T14:19:29.640Z,7.29
2016-12-07T14:20:40.627Z,7.29
2016-12-07T14:21:51.664Z,7.27
2016-12-07T14:23:02.645Z,7.3
2016-12-07T14:24:13.832Z,7.16
2016-12-07T14:25:24.829Z,7.22
2016-12-07T14:26:35.821Z,7.23
2016-12-07T14:27:46.859Z,7.23
2016-12-07T14:28:57.840Z,7.26
2016-12-07T14:30:08.822Z,7.23
2016-12-07T14:31:20.008Z,7.19
2016-12-07T14:32:30.995Z,7.21
2016-12-07T14:33:42.059Z,7.16
2016-12-07T14:34:53.050Z,7.16
2016-12-07T14:36:04.048Z,7.26
2016-12-07T14:37:15.045Z,7.19
2016-12-07T14:38:26.018Z,7.21
2016-12-07T14:39:37.054Z,7.19
2016-12-07T14:40:48.255Z,7.18
2016-12-07T14:41:59.243Z,7.18
2016-12-07T14:43:10.433Z,7.19
2016-12-07T14:44:21.830Z,7.19
2016-12-07T14:45:32.868Z,7.21
2016-12-07T14:46:43.857Z,7.18
2016-12-07T14:47:54.847Z,7.19
2016-12-07T14:49:05.844Z,7.22
2016-12-07T14:50:16.837Z,7.19
2016-12-07T14:51:27.894Z,7.04
2016-12-07T14:52:39.085Z,7.12
2016-12-07T14:53:50.073Z,7.12
2016-12-07T14:55:01.064Z,7.05
2016-12-07T14:56:12.058Z,7.05
2016-12-07T14:57:23.101Z,7.08
2016-12-07T14:58:34.282Z,7.05
2016-12-07T14:59:45.269Z,7.03
2016-12-07T15:00:56.250Z,7.03
2016-12-07T15:02:07.252Z,7.05
2016-12-07T15:03:18.485Z,6.97
2016-12-07T15:04:29.472Z,7.01
2016-12-07T15:05:40.455Z,7.04
2016-12-07T15:06:51.442Z,7
2016-12-07T15:08:02.435Z,6.93
2016-12-07T15:09:13.464Z,6.97
2016-12-07T15:10:24.446Z,6.93
2016-12-07T15:11:35.435Z,6.91
2016-12-07T15:12:46.415Z,6.91
2016-12-07T15:13:57.403Z,6.9
2016-12-07T15:15:08.591Z,6.91
2016-12-07T15:16:19.773Z,6.82
2016-12-07T15:17:30.962Z,6.95
2016-12-07T15:18:41.954Z,6.86
2016-12-07T15:19:52.940Z,6.86
2016-12-07T15:21:03.926Z,6.91
2016-12-07T15:22:14.909Z,6.95
2016-12-07T15:23:25.898Z,6.82
2016-12-07T15:24:37.080Z,6.82
2016-12-07T15:25:48.059Z,6.94
2016-12-07T15:26:59.242Z,6.93
2016-12-07T15:28:10.233Z,6.91
2016-12-07T15:29:21.232Z,6.86
2016-12-07T15:30:32.613Z,6.95
2016-12-07T15:31:43.590Z,6.93